Time;durP1;ratioP1;P1;durP2;ratioP2;P2;SDS_P1;SDS_P2;PMS_P1;PMS_P2;Temp;Humidity;BMP_temperature;BMP_pressure;BME280_temperature;BME280_humidity;BME280_pressure;Samples;Min_cycle;Max_cycle;Signal;HPM_P1;HPM_P2
2023/05/04 00:00:47;;;;;;;26.80;19.20;;;;;;;18.45;100.00;96836.28;5103486;27;20090;-56
2023/05/04 00:03:15;;;;;;;29.20;20.38;;;;;;;18.38;100.00;96832.69;5107167;28;20511;-53
2023/05/04 00:05:44;;;;;;;29.95;20.33;;;;;;;18.38;100.00;96830.00;5101985;27;20079;-49
2023/05/04 00:08:12;;;;;;;28.45;18.92;;;;;;;18.47;100.00;96818.19;5106265;28;20079;-54
2023/05/04 00:10:42;;;;;;;29.85;20.70;;;;;;;18.42;100.00;96817.94;5101274;27;20161;-52
2023/05/04 00:13:10;;;;;;;30.05;19.40;;;;;;;18.08;100.00;96816.66;5104488;28;20071;-56
2023/05/04 00:15:39;;;;;;;30.67;20.08;;;;;;;17.93;100.00;96816.63;5104739;28;20106;-56
2023/05/04 00:18:07;;;;;;;30.23;20.00;;;;;;;18.00;100.00;96822.06;5103897;27;20526;-57
2023/05/04 00:20:35;;;;;;;30.10;18.40;;;;;;;17.87;100.00;96809.34;5101942;28;20500;-55
2023/05/04 00:23:04;;;;;;;30.00;20.35;;;;;;;17.74;100.00;96814.44;5106327;28;20415;-51
2023/05/04 00:25:33;;;;;;;27.80;17.52;;;;;;;17.30;100.00;96807.97;5104357;28;20259;-55
2023/05/04 00:28:02;;;;;;;31.00;20.15;;;;;;;17.64;100.00;96806.69;5103401;28;20075;-53
2023/05/04 00:30:37;;;;;;;30.60;18.90;;;;;;;17.75;100.00;96813.41;5107460;28;20086;-56
2023/05/04 00:33:08;;;;;;;29.35;19.80;;;;;;;17.93;100.00;96813.16;5087824;27;20046;-55
2023/05/04 00:35:36;;;;;;;32.33;21.42;;;;;;;17.97;100.00;96809.91;5103200;27;20071;-57
2023/05/04 00:38:04;;;;;;;32.28;19.42;;;;;;;18.36;100.00;96799.97;5104036;27;20078;-54
2023/05/04 00:40:34;;;;;;;30.10;19.73;;;;;;;18.39;100.00;96804.97;5102580;28;20468;-57
2023/05/04 00:43:03;;;;;;;30.13;19.55;;;;;;;18.32;100.00;96804.03;5106371;27;20079;-53
2023/05/04 00:45:32;;;;;;;36.33;20.77;;;;;;;17.95;100.00;96805.75;5102851;28;20574;-55
2023/05/04 00:48:00;;;;;;;28.80;18.58;;;;;;;17.95;100.00;96803.91;5102835;28;20079;-50
2023/05/04 00:50:29;;;;;;;28.90;17.83;;;;;;;17.90;100.00;96809.00;5103778;27;20083;-55
2023/05/04 00:52:59;;;;;;;32.65;19.30;;;;;;;18.20;100.00;96809.84;5101295;28;20094;-54
2023/05/04 00:55:27;;;;;;;32.97;20.00;;;;;;;18.04;100.00;96802.00;5104067;28;20707;-55
2023/05/04 00:57:56;;;;;;;32.05;19.30;;;;;;;18.10;100.00;96806.63;5104088;28;20527;-51
2023/05/04 01:00:26;;;;;;;31.65;20.27;;;;;;;18.15;100.00;96801.56;5102655;28;20079;-56
2023/05/04 01:02:54;;;;;;;32.60;19.10;;;;;;;18.28;100.00;96800.91;5103808;28;20079;-56
2023/05/04 01:05:23;;;;;;;30.80;19.88;;;;;;;18.20;100.00;96809.00;5105742;28;20526;-57
2023/05/04 01:07:56;;;;;;;32.45;21.05;;;;;;;17.94;100.00;96807.59;5104420;28;20091;-55
2023/05/04 01:10:29;;;;;;;33.17;19.48;;;;;;;18.25;100.00;96806.63;5108725;28;20083;-57
2023/05/04 01:13:01;;;;;;;32.03;20.70;;;;;;;18.33;100.00;96805.69;5106987;27;20110;-58
2023/05/04 01:15:32;;;;;;;33.88;20.35;;;;;;;18.36;100.00;96803.47;5108356;27;20072;-51
2023/05/04 01:18:00;;;;;;;32.20;19.77;;;;;;;18.21;100.00;96810.69;5108141;28;20088;-53
2023/05/04 01:20:29;;;;;;;29.58;19.48;;;;;;;17.94;100.00;96812.13;5109493;27;20086;-57
2023/05/04 01:22:59;;;;;;;30.77;19.33;;;;;;;18.08;100.00;96813.16;5108365;27;20098;-58
2023/05/04 01:25:30;;;;;;;34.58;20.52;;;;;;;17.83;100.00;96809.91;5111030;27;20134;-54
2023/05/04 01:28:02;;;;;;;32.58;19.58;;;;;;;17.51;100.00;96803.81;5108622;28;20075;-49
2023/05/04 01:30:36;;;;;;;31.27;19.30;;;;;;;18.27;100.00;96802.75;5107006;27;20605;-52
2023/05/04 01:33:04;;;;;;;32.83;17.80;;;;;;;17.46;100.00;96800.84;5108443;27;20519;-53
2023/05/04 01:35:33;;;;;;;29.48;18.88;;;;;;;17.95;100.00;96811.09;5109546;27;20531;-56
2023/05/04 01:38:03;;;;;;;31.15;20.05;;;;;;;17.50;100.00;96802.16;5101790;27;20094;-57
2023/05/04 01:40:31;;;;;;;30.40;19.00;;;;;;;17.99;100.00;96807.88;5105523;27;20098;-58
2023/05/04 01:43:00;;;;;;;30.77;18.98;;;;;;;17.47;100.00;96798.00;5111035;27;20168;-54
2023/05/04 01:45:28;;;;;;;27.88;17.15;;;;;;;17.68;100.00;96799.97;5108970;27;20083;-54
2023/05/04 01:47:57;;;;;;;31.00;18.50;;;;;;;17.61;100.00;96801.72;5109278;27;20087;-56
2023/05/04 01:50:25;;;;;;;30.98;18.23;;;;;;;17.46;100.00;96798.19;5106841;27;20085;-55
2023/05/04 01:52:53;;;;;;;28.50;18.33;;;;;;;17.45;100.00;96796.53;5103837;27;20601;-50
2023/05/04 01:55:23;;;;;;;28.95;17.58;;;;;;;17.84;100.00;96800.88;5107796;27;20087;-55
2023/05/04 01:57:51;;;;;;;26.98;17.30;;;;;;;17.50;100.00;96794.97;5107638;27;20079;-53
2023/05/04 02:00:20;;;;;;;25.77;17.45;;;;;;;17.83;100.00;96793.91;5108782;27;20102;-50
2023/05/04 02:02:48;;;;;;;28.95;19.33;;;;;;;17.81;98.16;96795.91;5106854;27;20482;-58
2023/05/04 02:05:17;;;;;;;27.58;18.38;;;;;;;17.62;100.00;96791.88;5107970;27;20098;-58
2023/05/04 02:07:45;;;;;;;31.50;17.90;;;;;;;17.63;98.18;96796.22;5107938;27;20116;-58
2023/05/04 02:10:14;;;;;;;25.83;17.35;;;;;;;17.99;93.32;96796.38;5105685;27;20355;-53
2023/05/04 02:12:43;;;;;;;25.92;17.38;;;;;;;17.81;96.31;96796.72;5105820;27;20535;-56
2023/05/04 02:15:12;;;;;;;24.13;15.80;;;;;;;17.62;99.10;96792.72;5109101;27;20083;-55
2023/05/04 02:17:40;;;;;;;26.20;14.55;;;;;;;17.86;95.86;96790.84;5105135;27;20086;-57
2023/05/04 02:20:10;;;;;;;28.13;15.52;;;;;;;17.66;93.33;96791.34;5105746;27;20113;-54
2023/05/04 02:22:38;;;;;;;23.77;14.38;;;;;;;17.96;92.35;96796.75;5107717;27;20099;-58
2023/05/04 02:25:07;;;;;;;25.17;14.23;;;;;;;17.73;94.49;96799.47;5107161;28;20090;-52
2023/05/04 02:27:35;;;;;;;24.08;14.95;;;;;;;17.76;94.66;96794.63;5107669;27;20663;-54
2023/05/04 02:30:06;;;;;;;24.05;14.35;;;;;;;17.71;94.44;96796.13;5104044;27;20067;-57
2023/05/04 02:32:35;;;;;;;25.00;13.73;;;;;;;17.55;95.89;96797.13;5107316;27;20071;-55
2023/05/04 02:35:04;;;;;;;25.85;13.55;;;;;;;17.67;93.54;96798.31;5110879;27;20075;-54
2023/05/04 02:37:32;;;;;;;21.00;13.35;;;;;;;17.52;95.07;96792.97;5109048;27;20540;-55
2023/05/04 02:40:00;;;;;;;22.63;12.68;;;;;;;17.26;95.91;96798.66;5105826;27;20079;-51
2023/05/04 02:42:29;;;;;;;26.33;14.25;;;;;;;17.49;94.02;96797.84;5105090;27;20075;-55
2023/05/04 02:44:57;;;;;;;25.40;13.77;;;;;;;17.21;98.10;96798.38;5105658;28;20087;-52
2023/05/04 02:47:26;;;;;;;23.60;13.13;;;;;;;17.13;96.64;96792.28;5106269;27;20087;-52
2023/05/04 02:49:55;;;;;;;19.95;13.20;;;;;;;17.25;97.56;96794.34;5107171;27;20083;-53
2023/05/04 02:52:23;;;;;;;21.83;11.93;;;;;;;17.41;94.49;96790.75;5107386;27;20083;-54
2023/05/04 02:54:51;;;;;;;25.27;13.43;;;;;;;17.68;90.24;96791.97;5104947;27;20120;-51
2023/05/04 02:57:20;;;;;;;23.15;12.70;;;;;;;17.77;87.16;96800.78;5104757;27;20094;-51
2023/05/04 02:59:48;;;;;;;18.08;11.30;;;;;;;17.69;83.48;96790.16;5106918;27;20075;-54
2023/05/04 03:02:17;;;;;;;20.55;12.18;;;;;;;17.58;79.53;96796.72;5105930;27;20105;-57
2023/05/04 03:04:46;;;;;;;17.42;11.00;;;;;;;17.52;76.73;96797.47;5104447;27;20491;-55
2023/05/04 03:07:14;;;;;;;18.40;10.52;;;;;;;17.53;74.68;96802.63;5107281;27;20090;-56
2023/05/04 03:09:43;;;;;;;17.75;10.70;;;;;;;17.47;74.64;96795.31;5107498;27;20177;-59
2023/05/04 03:12:14;;;;;;;20.92;10.93;;;;;;;17.46;77.82;96799.00;5104615;27;20531;-56
2023/05/04 03:14:42;;;;;;;16.00;10.18;;;;;;;17.38;79.43;96801.75;5105421;27;20090;-54
2023/05/04 03:17:11;;;;;;;19.45;10.90;;;;;;;17.34;78.87;96800.44;5107116;27;20082;-56
2023/05/04 03:19:39;;;;;;;16.25;10.57;;;;;;;17.27;80.60;96796.81;5103828;27;20044;-54
2023/05/04 03:22:09;;;;;;;22.60;11.45;;;;;;;17.44;80.86;96789.53;5106381;27;20082;-57
2023/05/04 03:24:38;;;;;;;18.02;10.73;;;;;;;17.36;81.80;96790.44;5107622;27;20098;-55
2023/05/04 03:27:06;;;;;;;17.48;10.52;;;;;;;16.93;83.00;96792.75;5104462;27;20091;-54
2023/05/04 03:29:35;;;;;;;19.02;10.55;;;;;;;16.72;89.50;96793.31;5105896;27;20083;-52
2023/05/04 03:32:03;;;;;;;19.88;11.20;;;;;;;17.06;87.37;96792.97;5108767;27;20075;-50
2023/05/04 03:34:31;;;;;;;18.25;10.95;;;;;;;17.22;86.00;96792.03;5107150;28;20086;-53
2023/05/04 03:37:00;;;;;;;23.25;11.35;;;;;;;17.19;86.62;96795.06;5103619;27;21845;-60
2023/05/04 03:39:29;;;;;;;17.40;10.93;;;;;;;17.12;87.10;96790.63;5103462;27;20079;-57
2023/05/04 03:41:58;;;;;;;19.48;11.23;;;;;;;17.29;85.94;96787.66;5104885;27;20079;-56
2023/05/04 03:44:26;;;;;;;22.35;11.27;;;;;;;17.27;86.19;96787.00;5107134;27;20082;-58
2023/05/04 03:46:54;;;;;;;22.92;11.52;;;;;;;17.15;87.12;96790.28;5105260;27;20083;-56
2023/05/04 03:49:23;;;;;;;21.58;11.55;;;;;;;17.17;87.69;96790.91;5106489;27;20082;-57
2023/05/04 03:51:51;;;;;;;18.50;11.30;;;;;;;17.00;89.97;96785.72;5106654;27;20459;-56
2023/05/04 03:54:19;;;;;;;19.83;11.50;;;;;;;16.97;89.21;96782.56;5102348;27;20097;-55
2023/05/04 03:56:49;;;;;;;17.75;10.60;;;;;;;16.72;90.34;96789.81;5104901;27;20109;-55
2023/05/04 03:59:17;;;;;;;22.90;10.88;;;;;;;16.80;92.89;96782.66;5106435;27;20091;-57
2023/05/04 04:01:45;;;;;;;17.63;10.48;;;;;;;16.89;91.52;96785.25;5104698;27;20089;-56
2023/05/04 04:04:14;;;;;;;19.27;11.32;;;;;;;17.38;85.11;96780.44;5104578;27;20538;-56
2023/05/04 04:06:42;;;;;;;18.65;11.07;;;;;;;17.25;85.80;96775.69;5105284;27;20557;-57
2023/05/04 04:09:10;;;;;;;21.35;10.95;;;;;;;16.48;89.91;96791.63;5105779;27;20087;-58
2023/05/04 04:11:39;;;;;;;20.35;10.30;;;;;;;16.26;94.74;96782.56;5103740;27;20074;-58
2023/05/04 04:14:08;;;;;;;18.23;10.93;;;;;;;16.88;93.83;96772.97;5101166;27;20071;-59
2023/05/04 04:16:37;;;;;;;16.57;10.27;;;;;;;17.53;81.32;96773.28;5097902;27;20079;-56
2023/05/04 04:19:06;;;;;;;18.80;9.93;;;;;;;18.37;72.02;96770.41;5102030;28;20327;-49
2023/05/04 04:21:35;;;;;;;18.65;11.50;;;;;;;18.83;67.03;96774.72;5105778;27;20079;-54
2023/05/04 04:24:03;;;;;;;15.80;9.82;;;;;;;19.61;61.28;96768.47;5102797;27;20071;-55
2023/05/04 04:26:32;;;;;;;23.58;10.85;;;;;;;19.55;62.16;96776.44;5101339;28;20674;-52
2023/05/04 04:29:01;;;;;;;15.63;10.23;;;;;;;19.32;63.15;96779.31;5105967;27;20090;-54
2023/05/04 04:31:30;;;;;;;17.10;10.32;;;;;;;19.67;61.92;96773.06;5101519;27;20079;-51
2023/05/04 04:33:59;;;;;;;19.40;10.20;;;;;;;19.04;64.33;96774.72;5102643;27;20087;-59
2023/05/04 04:36:28;;;;;;;15.25;9.77;;;;;;;19.89;58.47;96773.03;5102310;27;20090;-53
2023/05/04 04:38:56;;;;;;;16.15;10.32;;;;;;;21.33;53.47;96765.78;5102367;27;20092;-57
2023/05/04 04:41:24;;;;;;;15.27;9.50;;;;;;;21.82;51.26;96771.81;5104119;27;20071;-56
2023/05/04 04:43:53;;;;;;;11.45;8.57;;;;;;;22.28;48.62;96770.94;5102673;27;20071;-57
2023/05/04 04:46:21;;;;;;;12.77;8.90;;;;;;;21.52;50.07;96768.72;5101873;28;20083;-54
2023/05/04 04:48:52;;;;;;;15.23;9.18;;;;;;;22.67;46.76;96769.97;5106594;27;20535;-53
2023/05/04 04:51:20;;;;;;;14.50;9.50;;;;;;;22.19;48.20;96786.44;5102717;27;20094;-53
2023/05/04 04:53:50;;;;;;;15.82;9.63;;;;;;;22.63;46.51;96786.75;5097245;28;20090;-57
2023/05/04 04:56:18;;;;;;;13.02;9.40;;;;;;;23.64;45.07;96781.44;5105746;28;20071;-52
2023/05/04 04:58:47;;;;;;;17.10;10.23;;;;;;;23.43;44.87;96784.47;5107831;27;20111;-54
2023/05/04 05:01:16;;;;;;;10.82;8.30;;;;;;;24.02;43.27;96787.75;5103393;28;20094;-52
2023/05/04 05:03:45;;;;;;;13.93;8.77;;;;;;;24.12;42.41;96782.66;5109702;27;20140;-53
2023/05/04 05:06:15;;;;;;;11.55;8.07;;;;;;;23.79;42.61;96789.19;5108214;28;20083;-58
2023/05/04 05:08:44;;;;;;;10.38;8.07;;;;;;;23.89;42.36;96797.59;5105982;28;20488;-56
2023/05/04 05:11:12;;;;;;;13.75;8.75;;;;;;;23.25;43.56;96803.22;5106137;28;20095;-55
2023/05/04 05:13:40;;;;;;;13.48;8.25;;;;;;;23.07;43.99;96801.25;5103301;28;20087;-53
2023/05/04 05:16:09;;;;;;;13.48;8.32;;;;;;;22.81;45.10;96808.38;5103355;28;20101;-51
2023/05/04 05:18:37;;;;;;;13.38;8.48;;;;;;;22.46;45.48;96814.06;5100571;28;20098;-57
2023/05/04 05:21:06;;;;;;;12.73;8.70;;;;;;;22.54;45.90;96812.19;5101679;28;20772;-53
2023/05/04 05:23:36;;;;;;;11.55;8.45;;;;;;;21.44;48.77;96814.53;5106135;28;20079;-55
2023/05/04 05:26:04;;;;;;;15.97;9.20;;;;;;;20.88;51.49;96815.59;5104128;28;20128;-57
2023/05/04 05:28:32;;;;;;;14.90;9.15;;;;;;;20.92;52.68;96816.00;5108790;28;20530;-55
2023/05/04 05:31:01;;;;;;;14.32;9.10;;;;;;;20.79;54.64;96814.94;5107386;28;20091;-53
2023/05/04 05:33:29;;;;;;;13.88;11.40;;;;;;;19.81;57.10;96808.78;5102462;28;20083;-56
2023/05/04 05:35:57;;;;;;;14.70;9.30;;;;;;;19.51;62.87;96815.28;5102129;28;20087;-55
2023/05/04 05:38:26;;;;;;;14.38;9.55;;;;;;;19.87;61.91;96805.31;5107953;28;20078;-54
2023/05/04 05:40:55;;;;;;;15.07;11.05;;;;;;;19.45;66.13;96806.19;5110860;28;20475;-49
2023/05/04 05:43:24;;;;;;;16.30;10.20;;;;;;;19.71;69.29;96804.78;5104958;28;20072;-53
2023/05/04 05:45:52;;;;;;;14.93;10.80;;;;;;;19.58;65.88;96808.97;5102793;28;20094;-57
2023/05/04 05:48:21;;;;;;;17.92;12.20;;;;;;;18.96;70.66;96812.28;5101488;28;20176;-58
2023/05/04 05:50:49;;;;;;;17.42;11.15;;;;;;;19.77;69.17;96806.69;5100824;28;20102;-56
2023/05/04 05:53:17;;;;;;;18.02;11.13;;;;;;;19.71;70.19;96794.91;5102910;28;20755;-53
2023/05/04 05:55:46;;;;;;;16.10;12.10;;;;;;;19.23;76.00;96800.00;5102329;28;20134;-57
2023/05/04 05:58:15;;;;;;;18.08;11.55;;;;;;;20.47;66.54;96786.94;5109621;27;20071;-52
2023/05/04 06:00:44;;;;;;;13.27;8.20;;;;;;;19.66;74.02;96798.16;5106851;27;20087;-49
2023/05/04 06:03:12;;;;;;;15.85;11.07;;;;;;;19.80;70.76;96795.59;5104952;28;20090;-49
2023/05/04 06:05:41;;;;;;;20.55;13.05;;;;;;;19.56;75.94;96797.63;5107866;28;20083;-48
2023/05/04 06:08:09;;;;;;;18.15;11.68;;;;;;;19.75;73.62;96798.88;5101890;28;20083;-57
2023/05/04 06:10:38;;;;;;;15.65;10.65;;;;;;;19.30;75.32;96803.56;5114616;27;20094;-50
2023/05/04 06:13:06;;;;;;;17.55;10.90;;;;;;;20.28;69.58;96788.50;5110779;27;20083;-49
2023/05/04 06:15:36;;;;;;;14.10;10.35;;;;;;;20.35;67.13;96788.53;5111662;28;20550;-50
2023/05/04 06:18:04;;;;;;;17.25;12.20;;;;;;;19.79;71.04;96792.09;5110506;28;20466;-50
2023/05/04 06:20:33;;;;;;;15.48;11.55;;;;;;;20.14;70.17;96790.28;5108615;28;20090;-49
2023/05/04 06:23:01;;;;;;;16.23;10.88;;;;;;;20.13;69.03;96791.31;5111085;28;20526;-50
2023/05/04 06:25:30;;;;;;;15.82;11.40;;;;;;;20.50;69.14;96791.06;5102018;28;20090;-50
2023/05/04 06:27:58;;;;;;;13.50;8.38;;;;;;;20.93;67.36;96793.56;5103241;28;20082;-48
2023/05/04 06:30:26;;;;;;;17.17;12.00;;;;;;;21.14;65.23;96785.34;5113173;27;20622;-53
2023/05/04 06:32:56;;;;;;;16.55;11.73;;;;;;;20.84;61.26;96785.69;5110871;28;20055;-53
2023/05/04 06:35:25;;;;;;;17.67;11.00;;;;;;;21.11;65.29;96788.44;5110651;28;20087;-47
2023/05/04 06:37:53;;;;;;;17.60;10.25;;;;;;;21.47;63.08;96782.75;5110627;28;20499;-51
2023/05/04 06:40:21;;;;;;;13.85;11.07;;;;;;;20.54;65.48;96779.81;5114912;27;20546;-50
2023/05/04 06:42:49;;;;;;;18.60;12.55;;;;;;;20.61;70.72;96780.66;5108474;28;20079;-51
2023/05/04 06:45:18;;;;;;;16.77;11.45;;;;;;;20.59;68.59;96782.72;5103129;28;20090;-49
2023/05/04 06:47:46;;;;;;;13.98;10.10;;;;;;;21.22;64.66;96779.78;5107935;28;20083;-47
2023/05/04 06:50:16;;;;;;;19.13;12.88;;;;;;;20.67;69.39;96786.25;5110615;28;20091;-47
2023/05/04 06:52:45;;;;;;;15.65;10.80;;;;;;;21.01;65.52;96779.97;5112040;27;20075;-47
2023/05/04 06:55:13;;;;;;;13.77;9.20;;;;;;;20.84;68.84;96791.03;5113147;27;20093;-53
2023/05/04 06:57:42;;;;;;;15.48;10.57;;;;;;;20.43;68.64;96793.72;5108540;27;20083;-52
2023/05/04 07:00:11;;;;;;;16.75;10.70;;;;;;;21.45;65.48;96787.50;5113032;27;20538;-48
2023/05/04 07:02:39;;;;;;;16.13;10.45;;;;;;;22.19;59.27;96783.75;5111325;27;20086;-47
2023/05/04 07:05:08;;;;;;;14.90;10.82;;;;;;;21.65;61.06;96784.84;5109978;28;20086;-53
2023/05/04 07:07:38;;;;;;;14.25;9.45;;;;;;;21.63;62.32;96778.84;5107173;28;20644;-50
2023/05/04 07:10:07;;;;;;;15.88;11.75;;;;;;;22.49;57.31;96781.41;5110327;28;20138;-51
2023/05/04 07:12:36;;;;;;;14.82;9.50;;;;;;;22.60;58.90;96779.91;5108266;28;20075;-48
2023/05/04 07:15:06;;;;;;;13.73;9.38;;;;;;;21.95;61.15;96787.88;5110136;28;20075;-52
2023/05/04 07:17:35;;;;;;;14.88;11.38;;;;;;;21.53;60.71;96783.78;5104780;28;20079;-56
2023/05/04 07:20:05;;;;;;;14.40;10.00;;;;;;;22.28;60.10;96781.69;5108822;28;20086;-51
2023/05/04 07:22:34;;;;;;;14.25;9.63;;;;;;;22.15;60.33;96781.72;5111637;27;20079;-48
2023/05/04 07:25:04;;;;;;;15.80;10.38;;;;;;;21.78;63.87;96776.78;5108890;28;20075;-49
2023/05/04 07:27:33;;;;;;;12.52;9.60;;;;;;;21.89;60.76;96774.50;5107125;28;20078;-51
2023/05/04 07:30:02;;;;;;;13.73;9.38;;;;;;;21.48;64.76;96762.13;5107681;28;20566;-51
2023/05/04 07:32:31;;;;;;;13.63;10.20;;;;;;;22.27;63.09;96770.09;5109605;27;20106;-49
2023/05/04 07:34:59;;;;;;;15.48;9.90;;;;;;;22.13;63.28;96771.16;5104039;28;20071;-48
2023/05/04 07:37:28;;;;;;;14.52;9.45;;;;;;;22.88;61.17;96771.53;5103320;28;20531;-52
2023/05/04 07:39:56;;;;;;;15.90;10.13;;;;;;;22.12;58.50;96768.66;5104049;28;20063;-47
2023/05/04 07:42:26;;;;;;;12.65;8.57;;;;;;;23.24;57.37;96759.34;5106977;28;20645;-49
2023/05/04 07:44:55;;;;;;;14.27;9.88;;;;;;;22.49;57.41;96767.16;5103145;28;20075;-50
2023/05/04 07:47:23;;;;;;;15.18;10.50;;;;;;;22.18;58.46;96766.00;5106986;28;20080;-48
2023/05/04 07:49:51;;;;;;;12.93;9.57;;;;;;;23.12;56.64;96755.69;5108179;28;20098;-51
2023/05/04 07:52:20;;;;;;;13.00;10.30;;;;;;;22.01;56.14;96768.25;5107952;28;20482;-52
2023/05/04 07:54:52;;;;;;;11.63;7.40;;;;;;;22.66;52.79;96752.19;5103317;28;20082;-52
2023/05/04 07:57:20;;;;;;;11.27;8.75;;;;;;;22.15;55.04;96765.59;5108273;28;20083;-53
2023/05/04 07:59:53;;;;;;;12.60;9.13;;;;;;;22.56;53.61;96769.81;5109621;28;20090;-50
2023/05/04 08:02:22;;;;;;;13.90;8.05;;;;;;;23.03;51.71;96762.38;5108829;28;20491;-54
2023/05/04 08:04:50;;;;;;;10.15;7.75;;;;;;;23.05;51.60;96754.91;5109504;28;20075;-48
2023/05/04 08:07:21;;;;;;;10.57;8.80;;;;;;;22.65;53.05;96764.00;5108574;28;20083;-51
2023/05/04 08:09:51;;;;;;;11.05;7.70;;;;;;;23.50;50.44;96762.88;5104221;28;20098;-50
2023/05/04 08:12:19;;;;;;;9.93;7.70;;;;;;;22.85;51.07;96755.84;5108195;28;20098;-52
2023/05/04 08:14:47;;;;;;;10.57;7.43;;;;;;;23.14;51.18;96750.94;5109221;28;20079;-51
2023/05/04 08:17:17;;;;;;;10.15;7.78;;;;;;;22.77;49.60;96768.69;5110111;27;20078;-51
2023/05/04 08:19:46;;;;;;;10.93;7.73;;;;;;;22.78;49.50;96768.50;5108635;28;20448;-48
2023/05/04 08:22:14;;;;;;;9.45;7.63;;;;;;;22.48;50.28;96758.25;5109316;28;20499;-49
2023/05/04 08:24:42;;;;;;;9.85;7.63;;;;;;;22.52;50.20;96772.91;5104960;28;20482;-49
2023/05/04 08:27:12;;;;;;;10.02;7.88;;;;;;;22.82;49.54;96763.50;5101653;28;20091;-49
2023/05/04 08:29:40;;;;;;;9.38;7.15;;;;;;;22.68;49.83;96762.75;5106227;28;20083;-46
2023/05/04 08:32:09;;;;;;;11.20;6.75;;;;;;;22.55;50.69;96760.09;5106913;28;20087;-53
2023/05/04 08:34:38;;;;;;;14.50;7.05;;;;;;;22.86;49.76;96760.16;5108175;28;20083;-55
2023/05/04 08:37:07;;;;;;;10.97;7.10;;;;;;;22.78;50.22;96763.13;5108442;28;20083;-50
2023/05/04 08:39:36;;;;;;;9.38;7.40;;;;;;;22.99;48.81;96756.63;5108549;28;20194;-48
2023/05/04 08:42:07;;;;;;;7.80;4.90;;;;;;;23.50;47.67;96752.13;5104196;28;20079;-51
2023/05/04 08:44:35;;;;;;;10.48;6.78;;;;;;;23.42;47.53;96751.34;5108091;28;20083;-55
2023/05/04 08:47:04;;;;;;;9.57;5.88;;;;;;;24.06;46.66;96752.06;5108528;27;20071;-53
2023/05/04 08:49:32;;;;;;;10.93;6.57;;;;;;;23.87;46.62;96753.06;5107461;28;20075;-49
2023/05/04 08:52:08;;;;;;;9.10;6.53;;;;;;;23.50;46.56;96749.41;5108413;28;20071;-47
2023/05/04 08:54:38;;;;;;;8.23;6.32;;;;;;;23.72;46.74;96753.44;5108040;28;20083;-49
2023/05/04 08:57:07;;;;;;;8.57;6.60;;;;;;;23.11;46.86;96749.50;5102993;28;20595;-50
2023/05/04 08:59:36;;;;;;;11.05;7.25;;;;;;;22.87;46.89;96759.13;5105979;28;20079;-57
2023/05/04 09:02:04;;;;;;;9.82;7.75;;;;;;;24.01;45.95;96748.38;5107271;28;20071;-56
2023/05/04 09:04:33;;;;;;;9.52;7.25;;;;;;;23.49;46.67;96745.91;5107021;28;20079;-49
2023/05/04 09:07:02;;;;;;;9.73;6.53;;;;;;;23.46;47.22;96751.72;5107763;28;20079;-50
2023/05/04 09:09:31;;;;;;;12.60;7.70;;;;;;;24.65;46.48;96747.09;5103425;28;20106;-52
2023/05/04 09:11:59;;;;;;;10.52;6.68;;;;;;;24.64;45.71;96742.75;5114413;28;20094;-48
2023/05/04 09:14:32;;;;;;;11.65;6.28;;;;;;;25.26;44.43;96743.38;5111941;28;20087;-53
2023/05/04 09:17:00;;;;;;;8.70;5.78;;;;;;;24.01;44.14;96756.47;5104882;28;20079;-47
2023/05/04 09:19:33;;;;;;;10.60;7.55;;;;;;;23.58;45.28;96755.38;5107024;28;20561;-54
2023/05/04 09:22:14;;;;;;;8.85;6.68;;;;;;;24.19;44.77;96756.50;5108342;28;20083;-47
2023/05/04 09:24:43;;;;;;;15.52;8.20;;;;;;;24.70;44.02;96751.78;5107484;28;20067;-51
2023/05/04 09:27:12;;;;;;;15.25;7.88;;;;;;;24.61;44.71;96744.00;5107609;28;20083;-54
2023/05/04 09:29:41;;;;;;;9.95;6.68;;;;;;;24.56;44.93;96740.34;5106788;28;20486;-47
2023/05/04 09:32:14;;;;;;;10.02;7.78;;;;;;;24.10;44.92;96750.56;5110195;28;20105;-52
2023/05/04 09:34:49;;;;;;;12.88;7.75;;;;;;;24.34;44.81;96743.47;5103747;28;20079;-47
2023/05/04 09:37:20;;;;;;;9.85;7.78;;;;;;;24.01;43.53;96737.59;5111447;28;20090;-52
2023/05/04 09:39:53;;;;;;;12.68;6.22;;;;;;;24.71;41.71;96727.31;5105935;28;20180;-55
2023/05/04 09:42:22;;;;;;;12.25;8.02;;;;;;;25.06;42.89;96732.81;5112188;28;20092;-54
2023/05/04 09:45:04;;;;;;;11.40;7.78;;;;;;;24.50;43.97;96728.59;5101480;28;20083;-48
2023/05/04 09:47:37;;;;;;;10.43;7.07;;;;;;;24.79;42.42;96728.84;5105548;28;20074;-51
2023/05/04 09:50:15;;;;;;;9.57;8.18;;;;;;;24.35;42.48;96728.13;5105285;28;20523;-50
2023/05/04 09:52:50;;;;;;;10.90;7.90;;;;;;;25.03;43.09;96733.28;5106042;27;20078;-49
2023/05/04 09:55:18;;;;;;;;;;;;;;;24.47;42.50;96734.44;5104234;27;20076;-54
2023/05/04 09:57:48;;;;;;;11.00;8.60;;;;;;;25.03;41.92;96730.59;5099662;27;19955;-51
2023/05/04 10:00:17;;;;;;;9.48;8.25;;;;;;;24.91;41.92;96726.19;5113910;27;20534;-49
2023/05/04 10:02:46;;;;;;;12.23;7.22;;;;;;;24.51;42.54;96721.34;5119884;27;20094;-50
2023/05/04 10:05:16;;;;;;;12.35;7.80;;;;;;;25.08;40.62;96711.81;5104780;27;20118;-58
2023/05/04 10:07:45;;;;;;;9.25;6.50;;;;;;;25.62;40.63;96708.31;5100254;27;20174;-51
2023/05/04 10:10:15;;;;;;;11.32;8.82;;;;;;;26.45;39.93;96707.19;5108672;27;20482;-48
2023/05/04 10:12:44;;;;;;;13.77;8.93;;;;;;;25.74;40.41;96704.56;5110316;27;20083;-53
2023/05/04 10:15:14;;;;;;;10.15;7.15;;;;;;;25.60;40.95;96699.63;5108376;27;20072;-54
2023/05/04 10:18:07;;;;;;;14.52;8.30;;;;;;;25.70;40.74;96706.06;5107641;28;20099;-55
2023/05/04 10:21:01;;;;;;;10.25;8.13;;;;;;;25.54;41.12;96696.00;5100719;27;20086;-49
2023/05/04 10:24:04;;;;;;;9.45;6.90;;;;;;;24.87;41.13;96701.53;5110987;27;20459;-50
2023/05/04 10:26:42;;;;;;;10.25;7.65;;;;;;;25.43;41.91;96694.06;5002144;28;20144;-51
2023/05/04 10:29:17;;;;;;;13.77;9.50;;;;;;;26.15;39.99;96699.25;5089390;27;20484;-51
2023/05/04 10:31:46;;;;;;;11.07;8.48;;;;;;;26.23;40.21;96694.31;5100093;27;20082;-54
2023/05/04 10:34:24;;;;;;;13.35;8.10;;;;;;;27.02;40.07;96691.03;5106236;27;20079;-56
2023/05/04 10:36:53;;;;;;;13.05;9.40;;;;;;;26.27;40.11;96695.50;5109962;28;20444;-53
2023/05/04 10:39:23;;;;;;;11.25;6.90;;;;;;;26.70;39.16;96696.94;5108619;28;20498;-50
2023/05/04 10:42:03;;;;;;;9.40;7.38;;;;;;;27.51;37.95;96677.78;5084108;27;20071;-48
2023/05/04 10:44:33;;;;;;;9.60;7.47;;;;;;;25.98;39.23;96693.75;5107048;27;20071;-48
2023/05/04 10:47:04;;;;;;;10.20;7.60;;;;;;;26.21;37.42;96684.81;5107402;27;20071;-50
2023/05/04 10:49:32;;;;;;;12.77;7.53;;;;;;;26.66;37.37;96690.34;5099773;27;20517;-49
2023/05/04 10:52:08;;;;;;;11.45;9.00;;;;;;;26.46;38.38;96682.63;5100353;27;20083;-54
2023/05/04 10:54:36;;;;;;;12.32;8.38;;;;;;;25.91;38.71;96674.16;5109675;27;20752;-50
2023/05/04 10:57:07;;;;;;;11.75;8.57;;;;;;;26.82;38.18;96669.81;5100980;27;20087;-53
2023/05/04 10:59:36;;;;;;;12.10;8.00;;;;;;;26.73;38.01;96674.78;5094305;28;20079;-54
2023/05/04 11:02:06;;;;;;;11.13;6.65;;;;;;;26.53;37.50;96671.69;5106524;28;20083;-52
2023/05/04 11:04:35;;;;;;;9.68;7.93;;;;;;;25.41;37.27;96666.50;5105501;27;20109;-56
2023/05/04 11:07:05;;;;;;;10.00;7.13;;;;;;;26.21;37.97;96674.00;5109417;27;20086;-48
2023/05/04 11:09:38;;;;;;;12.38;8.07;;;;;;;26.55;38.33;96666.88;5101352;27;20075;-51
2023/05/04 11:12:10;;;;;;;11.18;8.05;;;;;;;26.86;36.42;96660.13;5103473;27;20075;-50
2023/05/04 11:14:41;;;;;;;11.23;8.00;;;;;;;26.83;37.11;96662.50;5110884;27;20087;-53
2023/05/04 11:17:13;;;;;;;11.93;8.27;;;;;;;26.76;37.22;96665.38;5102243;27;20114;-48
2023/05/04 11:19:49;;;;;;;10.18;6.88;;;;;;;26.73;37.64;96661.25;5101816;27;20072;-47
2023/05/04 11:22:18;;;;;;;11.27;8.02;;;;;;;27.30;36.99;96654.16;5105487;27;20083;-54
2023/05/04 11:24:47;;;;;;;12.77;9.07;;;;;;;26.41;36.17;96660.88;5110346;27;20557;-50
2023/05/04 11:27:24;;;;;;;13.95;9.80;;;;;;;27.12;36.00;96653.34;5108030;28;20530;-50
2023/05/04 11:29:57;;;;;;;11.10;8.45;;;;;;;26.42;37.00;96648.19;5104202;27;20557;-52